sensor_id;sensor_type;location;lat;lon;timestamp;temperature;humidity
18611;DHT22;9435;52.122;5.502;2023-04-29T00:01:34;9.70;99.90
18611;DHT22;9435;52.122;5.502;2023-04-29T00:04:01;9.70;99.90
18611;DHT22;9435;52.122;5.502;2023-04-29T00:06:29;9.80;99.90
18611;DHT22;9435;52.122;5.502;2023-04-29T00:08:56;9.70;99.90
18611;DHT22;9435;52.122;5.502;2023-04-29T00:11:23;9.70;99.90
18611;DHT22;9435;52.122;5.502;2023-04-29T00:13:50;9.70;99.90
18611;DHT22;9435;52.122;5.502;2023-04-29T00:16:17;9.60;99.90
18611;DHT22;9435;52.122;5.502;2023-04-29T00:18:45;9.70;99.90
18611;DHT22;9435;52.122;5.502;2023-04-29T00:21:12;9.60;99.90
18611;DHT22;9435;52.122;5.502;2023-04-29T00:23:40;9.60;99.90
18611;DHT22;9435;52.122;5.502;2023-04-29T00:26:07;9.70;99.90
18611;DHT22;9435;52.122;5.502;2023-04-29T00:28:34;9.60;99.90
18611;DHT22;9435;52.122;5.502;2023-04-29T00:31:01;9.70;99.90
18611;DHT22;9435;52.122;5.502;2023-04-29T00:33:28;9.70;99.90
18611;DHT22;9435;52.122;5.502;2023-04-29T00:35:55;9.60;99.90
18611;DHT22;9435;52.122;5.502;2023-04-29T00:38:22;9.70;99.90
18611;DHT22;9435;52.122;5.502;2023-04-29T00:40:51;9.70;99.90
18611;DHT22;9435;52.122;5.502;2023-04-29T00:43:18;9.70;99.90
18611;DHT22;9435;52.122;5.502;2023-04-29T00:45:45;9.70;99.90
18611;DHT22;9435;52.122;5.502;2023-04-29T00:48:12;9.60;99.90
18611;DHT22;9435;52.122;5.502;2023-04-29T00:50:40;9.60;99.90
18611;DHT22;9435;52.122;5.502;2023-04-29T00:53:07;9.60;99.90
18611;DHT22;9435;52.122;5.502;2023-04-29T00:55:36;9.60;99.90
18611;DHT22;9435;52.122;5.502;2023-04-29T00:58:05;9.60;99.90
18611;DHT22;9435;52.122;5.502;2023-04-29T01:00:32;9.60;99.90
18611;DHT22;9435;52.122;5.502;2023-04-29T01:02:59;9.60;99.90
18611;DHT22;9435;52.122;5.502;2023-04-29T01:05:26;9.60;99.90
18611;DHT22;9435;52.122;5.502;2023-04-29T01:08:03;9.60;99.90
18611;DHT22;9435;52.122;5.502;2023-04-29T01:10:40;9.60;99.90
18611;DHT22;9435;52.122;5.502;2023-04-29T01:13:16;9.60;99.90
18611;DHT22;9435;52.122;5.502;2023-04-29T01:15:48;9.60;99.90
18611;DHT22;9435;52.122;5.502;2023-04-29T01:18:25;9.50;99.90
18611;DHT22;9435;52.122;5.502;2023-04-29T01:20:52;9.50;99.90
18611;DHT22;9435;52.122;5.502;2023-04-29T01:23:25;9.50;99.90
18611;DHT22;9435;52.122;5.502;2023-04-29T01:25:52;9.50;99.90
18611;DHT22;9435;52.122;5.502;2023-04-29T01:28:39;9.50;99.90
18611;DHT22;9435;52.122;5.502;2023-04-29T01:31:17;9.50;99.90
18611;DHT22;9435;52.122;5.502;2023-04-29T01:33:49;9.50;99.90
18611;DHT22;9435;52.122;5.502;2023-04-29T01:36:24;9.50;99.90
18611;DHT22;9435;52.122;5.502;2023-04-29T01:39:02;9.50;99.90
18611;DHT22;9435;52.122;5.502;2023-04-29T01:41:34;9.50;99.90
18611;DHT22;9435;52.122;5.502;2023-04-29T01:44:07;9.40;99.90
18611;DHT22;9435;52.122;5.502;2023-04-29T01:46:35;9.50;99.90
18611;DHT22;9435;52.122;5.502;2023-04-29T01:49:02;9.40;99.90
18611;DHT22;9435;52.122;5.502;2023-04-29T01:51:29;9.50;99.90
18611;DHT22;9435;52.122;5.502;2023-04-29T01:53:58;9.50;99.90
18611;DHT22;9435;52.122;5.502;2023-04-29T01:56:25;9.50;99.90
18611;DHT22;9435;52.122;5.502;2023-04-29T01:58:52;9.50;99.90
18611;DHT22;9435;52.122;5.502;2023-04-29T02:01:19;9.40;99.90
18611;DHT22;9435;52.122;5.502;2023-04-29T02:03:46;9.40;99.90
18611;DHT22;9435;52.122;5.502;2023-04-29T02:06:13;9.40;99.90
18611;DHT22;9435;52.122;5.502;2023-04-29T02:08:40;9.40;99.90
18611;DHT22;9435;52.122;5.502;2023-04-29T02:11:08;9.40;99.90
18611;DHT22;9435;52.122;5.502;2023-04-29T02:13:35;9.40;99.90
18611;DHT22;9435;52.122;5.502;2023-04-29T02:16:09;9.40;99.90
18611;DHT22;9435;52.122;5.502;2023-04-29T02:18:37;9.40;99.90
18611;DHT22;9435;52.122;5.502;2023-04-29T02:21:04;9.40;99.90
18611;DHT22;9435;52.122;5.502;2023-04-29T02:23:32;9.40;99.90
18611;DHT22;9435;52.122;5.502;2023-04-29T02:25:59;9.40;99.90
18611;DHT22;9435;52.122;5.502;2023-04-29T02:28:27;9.40;99.90
18611;DHT22;9435;52.122;5.502;2023-04-29T02:30:54;9.40;99.90
18611;DHT22;9435;52.122;5.502;2023-04-29T02:33:21;9.50;99.90
18611;DHT22;9435;52.122;5.502;2023-04-29T02:35:48;9.50;99.90
18611;DHT22;9435;52.122;5.502;2023-04-29T02:38:15;9.50;99.90
18611;DHT22;9435;52.122;5.502;2023-04-29T02:40:43;9.50;99.90
18611;DHT22;9435;52.122;5.502;2023-04-29T02:43:10;9.50;99.90
18611;DHT22;9435;52.122;5.502;2023-04-29T02:45:39;9.50;99.90
18611;DHT22;9435;52.122;5.502;2023-04-29T02:48:06;9.50;99.90
18611;DHT22;9435;52.122;5.502;2023-04-29T02:50:33;9.50;99.90
18611;DHT22;9435;52.122;5.502;2023-04-29T02:53:00;9.50;99.90
18611;DHT22;9435;52.122;5.502;2023-04-29T02:55:27;9.50;99.90
18611;DHT22;9435;52.122;5.502;2023-04-29T02:57:54;9.50;99.90
18611;DHT22;9435;52.122;5.502;2023-04-29T03:00:21;9.50;99.90
18611;DHT22;9435;52.122;5.502;2023-04-29T03:02:50;9.50;99.90
18611;DHT22;9435;52.122;5.502;2023-04-29T03:05:17;9.50;99.90
18611;DHT22;9435;52.122;5.502;2023-04-29T03:07:44;9.50;99.90
18611;DHT22;9435;52.122;5.502;2023-04-29T03:10:11;9.50;99.90
18611;DHT22;9435;52.122;5.502;2023-04-29T03:12:38;9.50;99.90
18611;DHT22;9435;52.122;5.502;2023-04-29T03:15:06;9.50;99.90
18611;DHT22;9435;52.122;5.502;2023-04-29T03:17:35;9.50;99.90
18611;DHT22;9435;52.122;5.502;2023-04-29T03:20:04;9.50;99.90
18611;DHT22;9435;52.122;5.502;2023-04-29T03:22:32;9.40;99.90
18611;DHT22;9435;52.122;5.502;2023-04-29T03:24:59;9.40;99.90
18611;DHT22;9435;52.122;5.502;2023-04-29T03:27:26;9.40;99.90
18611;DHT22;9435;52.122;5.502;2023-04-29T03:29:53;9.40;99.90
18611;DHT22;9435;52.122;5.502;2023-04-29T03:32:20;9.40;99.90
18611;DHT22;9435;52.122;5.502;2023-04-29T03:34:47;9.40;99.90
18611;DHT22;9435;52.122;5.502;2023-04-29T03:37:16;9.40;99.90
18611;DHT22;9435;52.122;5.502;2023-04-29T03:39:43;9.40;99.90
18611;DHT22;9435;52.122;5.502;2023-04-29T03:42:10;9.40;99.90
18611;DHT22;9435;52.122;5.502;2023-04-29T03:44:37;9.40;99.90
18611;DHT22;9435;52.122;5.502;2023-04-29T03:47:04;9.40;99.90
18611;DHT22;9435;52.122;5.502;2023-04-29T03:49:32;9.40;99.90
18611;DHT22;9435;52.122;5.502;2023-04-29T03:52:00;9.40;99.90
18611;DHT22;9435;52.122;5.502;2023-04-29T03:54:29;9.40;99.90
18611;DHT22;9435;52.122;5.502;2023-04-29T03:56:56;9.40;99.90
18611;DHT22;9435;52.122;5.502;2023-04-29T03:59:23;9.40;99.90
18611;DHT22;9435;52.122;5.502;2023-04-29T04:01:50;9.40;99.90
18611;DHT22;9435;52.122;5.502;2023-04-29T04:04:18;9.40;99.90
18611;DHT22;9435;52.122;5.502;2023-04-29T04:06:46;9.40;99.90
18611;DHT22;9435;52.122;5.502;2023-04-29T04:09:16;9.40;99.90
18611;DHT22;9435;52.122;5.502;2023-04-29T04:11:44;9.40;99.90
18611;DHT22;9435;52.122;5.502;2023-04-29T04:14:11;9.40;99.90
18611;DHT22;9435;52.122;5.502;2023-04-29T04:16:38;9.40;99.90
18611;DHT22;9435;52.122;5.502;2023-04-29T04:19:06;9.40;99.90
18611;DHT22;9435;52.122;5.502;2023-04-29T04:21:33;9.40;99.90
18611;DHT22;9435;52.122;5.502;2023-04-29T04:24:01;9.40;99.90
18611;DHT22;9435;52.122;5.502;2023-04-29T04:26:28;9.30;99.90
18611;DHT22;9435;52.122;5.502;2023-04-29T04:28:56;9.40;99.90
18611;DHT22;9435;52.122;5.502;2023-04-29T04:31:23;9.40;99.90
18611;DHT22;9435;52.122;5.502;2023-04-29T04:33:50;9.40;99.90
18611;DHT22;9435;52.122;5.502;2023-04-29T04:36:17;9.40;99.90
18611;DHT22;9435;52.122;5.502;2023-04-29T04:38:44;9.40;99.90
18611;DHT22;9435;52.122;5.502;2023-04-29T04:41:11;9.40;99.90
18611;DHT22;9435;52.122;5.502;2023-04-29T04:43:38;9.40;99.90
18611;DHT22;9435;52.122;5.502;2023-04-29T04:46:10;9.40;99.90
18611;DHT22;9435;52.122;5.502;2023-04-29T04:48:38;9.40;99.90
18611;DHT22;9435;52.122;5.502;2023-04-29T04:51:08;9.40;99.90
18611;DHT22;9435;52.122;5.502;2023-04-29T04:53:35;9.40;99.90
18611;DHT22;9435;52.122;5.502;2023-04-29T04:56:03;9.50;99.90
18611;DHT22;9435;52.122;5.502;2023-04-29T04:58:30;9.40;99.90
18611;DHT22;9435;52.122;5.502;2023-04-29T05:00:58;9.50;99.90
18611;DHT22;9435;52.122;5.502;2023-04-29T05:03:26;9.50;99.90
18611;DHT22;9435;52.122;5.502;2023-04-29T05:05:54;9.50;99.90
18611;DHT22;9435;52.122;5.502;2023-04-29T05:08:21;9.50;99.90
18611;DHT22;9435;52.122;5.502;2023-04-29T05:10:48;9.50;99.90
18611;DHT22;9435;52.122;5.502;2023-04-29T05:13:16;9.50;99.90
18611;DHT22;9435;52.122;5.502;2023-04-29T05:15:43;9.50;99.90
18611;DHT22;9435;52.122;5.502;2023-04-29T05:18:11;9.50;99.90
18611;DHT22;9435;52.122;5.502;2023-04-29T05:20:39;9.60;99.90
18611;DHT22;9435;52.122;5.502;2023-04-29T05:23:06;9.60;99.90
18611;DHT22;9435;52.122;5.502;2023-04-29T05:25:34;9.60;99.90
18611;DHT22;9435;52.122;5.502;2023-04-29T05:28:02;9.60;99.90
18611;DHT22;9435;52.122;5.502;2023-04-29T05:30:29;9.60;99.90
18611;DHT22;9435;52.122;5.502;2023-04-29T05:32:56;9.60;99.90
18611;DHT22;9435;52.122;5.502;2023-04-29T05:35:24;9.70;99.90
18611;DHT22;9435;52.122;5.502;2023-04-29T05:37:53;9.70;99.90
18611;DHT22;9435;52.122;5.502;2023-04-29T05:40:20;9.60;99.90
18611;DHT22;9435;52.122;5.502;2023-04-29T05:42:48;9.70;99.90
18611;DHT22;9435;52.122;5.502;2023-04-29T05:45:16;9.70;99.90
18611;DHT22;9435;52.122;5.502;2023-04-29T05:47:43;9.70;99.90
18611;DHT22;9435;52.122;5.502;2023-04-29T05:50:10;9.80;99.90
18611;DHT22;9435;52.122;5.502;2023-04-29T05:52:37;9.80;99.90
18611;DHT22;9435;52.122;5.502;2023-04-29T05:55:07;9.90;99.90
18611;DHT22;9435;52.122;5.502;2023-04-29T05:57:34;9.90;99.90
18611;DHT22;9435;52.122;5.502;2023-04-29T06:00:02;10.00;99.90
18611;DHT22;9435;52.122;5.502;2023-04-29T06:02:31;10.00;99.90
18611;DHT22;9435;52.122;5.502;2023-04-29T06:04:58;10.00;99.90
18611;DHT22;9435;52.122;5.502;2023-04-29T06:07:26;10.10;99.90
18611;DHT22;9435;52.122;5.502;2023-04-29T06:09:55;10.10;99.90
18611;DHT22;9435;52.122;5.502;2023-04-29T06:12:23;10.20;99.90
18611;DHT22;9435;52.122;5.502;2023-04-29T06:14:50;10.30;99.90
18611;DHT22;9435;52.122;5.502;2023-04-29T06:17:17;10.40;99.90
18611;DHT22;9435;52.122;5.502;2023-04-29T06:19:44;10.40;99.90
18611;DHT22;9435;52.122;5.502;2023-04-29T06:22:12;10.50;99.90
18611;DHT22;9435;52.122;5.502;2023-04-29T06:24:39;10.50;99.90
18611;DHT22;9435;52.122;5.502;2023-04-29T06:27:09;10.60;99.90
18611;DHT22;9435;52.122;5.502;2023-04-29T06:29:38;10.50;99.90
18611;DHT22;9435;52.122;5.502;2023-04-29T06:32:05;10.50;99.90
18611;DHT22;9435;52.122;5.502;2023-04-29T06:34:32;10.60;99.90
18611;DHT22;9435;52.122;5.502;2023-04-29T06:37:13;10.60;99.90
18611;DHT22;9435;52.122;5.502;2023-04-29T06:39:42;10.70;99.90
18611;DHT22;9435;52.122;5.502;2023-04-29T06:42:10;10.80;99.90
18611;DHT22;9435;52.122;5.502;2023-04-29T06:44:38;10.80;99.90
18611;DHT22;9435;52.122;5.502;2023-04-29T06:47:07;10.80;99.90
18611;DHT22;9435;52.122;5.502;2023-04-29T06:49:34;10.90;99.90
18611;DHT22;9435;52.122;5.502;2023-04-29T06:52:01;10.80;99.90
18611;DHT22;9435;52.122;5.502;2023-04-29T06:54:28;10.80;99.90
18611;DHT22;9435;52.122;5.502;2023-04-29T06:56:55;10.70;99.90
18611;DHT22;9435;52.122;5.502;2023-04-29T06:59:31;10.80;99.90
18611;DHT22;9435;52.122;5.502;2023-04-29T07:02:00;10.90;99.90
18611;DHT22;9435;52.122;5.502;2023-04-29T07:04:27;10.80;99.90
18611;DHT22;9435;52.122;5.502;2023-04-29T07:06:55;10.80;99.90
18611;DHT22;9435;52.122;5.502;2023-04-29T07:09:23;10.90;99.90
18611;DHT22;9435;52.122;5.502;2023-04-29T07:11:52;11.00;99.90
18611;DHT22;9435;52.122;5.502;2023-04-29T07:14:19;11.20;99.90
18611;DHT22;9435;52.122;5.502;2023-04-29T07:16:51;11.40;99.90
18611;DHT22;9435;52.122;5.502;2023-04-29T07:19:20;11.70;99.90
18611;DHT22;9435;52.122;5.502;2023-04-29T07:21:47;11.70;99.90
18611;DHT22;9435;52.122;5.502;2023-04-29T07:24:14;11.80;99.90
18611;DHT22;9435;52.122;5.502;2023-04-29T07:26:42;11.70;99.90
18611;DHT22;9435;52.122;5.502;2023-04-29T07:29:10;11.60;99.90
18611;DHT22;9435;52.122;5.502;2023-04-29T07:31:37;11.90;99.90
18611;DHT22;9435;52.122;5.502;2023-04-29T07:34:04;11.80;99.90
18611;DHT22;9435;52.122;5.502;2023-04-29T07:36:32;11.80;99.90
18611;DHT22;9435;52.122;5.502;2023-04-29T07:39:00;12.10;99.90
18611;DHT22;9435;52.122;5.502;2023-04-29T07:41:27;12.20;99.90
18611;DHT22;9435;52.122;5.502;2023-04-29T07:43:54;12.20;99.90
18611;DHT22;9435;52.122;5.502;2023-04-29T07:46:21;12.40;99.90
18611;DHT22;9435;52.122;5.502;2023-04-29T07:48:48;12.50;99.90
18611;DHT22;9435;52.122;5.502;2023-04-29T07:51:16;12.40;99.90
18611;DHT22;9435;52.122;5.502;2023-04-29T07:53:44;12.30;99.90
18611;DHT22;9435;52.122;5.502;2023-04-29T07:56:12;12.40;99.90
18611;DHT22;9435;52.122;5.502;2023-04-29T07:58:39;12.40;99.90
18611;DHT22;9435;52.122;5.502;2023-04-29T08:01:07;12.30;99.90
18611;DHT22;9435;52.122;5.502;2023-04-29T08:03:34;12.40;99.90
18611;DHT22;9435;52.122;5.502;2023-04-29T08:06:02;12.60;99.90
18611;DHT22;9435;52.122;5.502;2023-04-29T08:08:29;12.90;99.90
18611;DHT22;9435;52.122;5.502;2023-04-29T08:10:58;13.40;99.90
18611;DHT22;9435;52.122;5.502;2023-04-29T08:13:25;13.40;99.90
18611;DHT22;9435;52.122;5.502;2023-04-29T08:15:52;13.40;99.90
18611;DHT22;9435;52.122;5.502;2023-04-29T08:18:20;12.80;99.90
18611;DHT22;9435;52.122;5.502;2023-04-29T08:20:47;12.60;99.90
18611;DHT22;9435;52.122;5.502;2023-04-29T08:23:15;12.90;99.90
18611;DHT22;9435;52.122;5.502;2023-04-29T08:25:42;13.30;99.90
18611;DHT22;9435;52.122;5.502;2023-04-29T08:28:11;13.60;99.90
18611;DHT22;9435;52.122;5.502;2023-04-29T08:30:39;13.60;99.90
18611;DHT22;9435;52.122;5.502;2023-04-29T08:33:06;13.60;99.90
18611;DHT22;9435;52.122;5.502;2023-04-29T08:35:34;13.00;99.90
18611;DHT22;9435;52.122;5.502;2023-04-29T08:38:03;13.00;99.90
18611;DHT22;9435;52.122;5.502;2023-04-29T08:40:34;13.40;99.90
18611;DHT22;9435;52.122;5.502;2023-04-29T08:43:02;13.50;99.90
18611;DHT22;9435;52.122;5.502;2023-04-29T08:45:32;13.70;99.90
18611;DHT22;9435;52.122;5.502;2023-04-29T08:48:01;14.00;99.90
18611;DHT22;9435;52.122;5.502;2023-04-29T08:50:29;14.20;99.90
18611;DHT22;9435;52.122;5.502;2023-04-29T08:52:57;14.10;99.90
18611;DHT22;9435;52.122;5.502;2023-04-29T08:55:24;13.90;99.90
18611;DHT22;9435;52.122;5.502;2023-04-29T08:57:53;13.90;99.90
18611;DHT22;9435;52.122;5.502;2023-04-29T09:00:22;14.20;99.90
18611;DHT22;9435;52.122;5.502;2023-04-29T09:02:53;14.50;99.90
18611;DHT22;9435;52.122;5.502;2023-04-29T09:05:23;14.50;99.90
18611;DHT22;9435;52.122;5.502;2023-04-29T09:07:51;14.70;99.90
18611;DHT22;9435;52.122;5.502;2023-04-29T09:10:19;14.50;99.90
18611;DHT22;9435;52.122;5.502;2023-04-29T09:12:46;14.70;99.90
18611;DHT22;9435;52.122;5.502;2023-04-29T09:15:13;14.50;99.90
18611;DHT22;9435;52.122;5.502;2023-04-29T09:17:42;14.70;99.90
18611;DHT22;9435;52.122;5.502;2023-04-29T09:20:29;14.80;99.90
18611;DHT22;9435;52.122;5.502;2023-04-29T09:22:58;14.40;99.90
18611;DHT22;9435;52.122;5.502;2023-04-29T09:25:26;14.10;99.90
18611;DHT22;9435;52.122;5.502;2023-04-29T09:27:53;13.80;99.90
18611;DHT22;9435;52.122;5.502;2023-04-29T09:30:21;14.00;99.90
18611;DHT22;9435;52.122;5.502;2023-04-29T09:33:05;13.90;99.90
18611;DHT22;9435;52.122;5.502;2023-04-29T09:35:34;13.90;99.90
18611;DHT22;9435;52.122;5.502;2023-04-29T09:38:09;14.20;99.90
18611;DHT22;9435;52.122;5.502;2023-04-29T09:40:37;14.60;99.90
18611;DHT22;9435;52.122;5.502;2023-04-29T09:43:11;14.60;99.90
18611;DHT22;9435;52.122;5.502;2023-04-29T09:45:41;14.50;99.90
18611;DHT22;9435;52.122;5.502;2023-04-29T09:48:09;14.20;99.90
18611;DHT22;9435;52.122;5.502;2023-04-29T09:50:38;13.90;99.90
18611;DHT22;9435;52.122;5.502;2023-04-29T09:53:07;13.90;99.90
18611;DHT22;9435;52.122;5.502;2023-04-29T09:55:35;13.80;99.90
18611;DHT22;9435;52.122;5.502;2023-04-29T09:58:02;14.20;99.90
18611;DHT22;9435;52.122;5.502;2023-04-29T10:00:31;14.90;99.90
18611;DHT22;9435;52.122;5.502;2023-04-29T10:03:00;15.10;99.90
18611;DHT22;9435;52.122;5.502;2023-04-29T10:05:28;15.30;99.90
18611;DHT22;9435;52.122;5.502;2023-04-29T10:07:59;14.90;99.90
18611;DHT22;9435;52.122;5.502;2023-04-29T10:10:26;14.60;99.90
18611;DHT22;9435;52.122;5.502;2023-04-29T10:12:59;14.50;99.90
18611;DHT22;9435;52.122;5.502;2023-04-29T10:15:31;14.30;99.90
18611;DHT22;9435;52.122;5.502;2023-04-29T10:18:07;14.30;99.90
18611;DHT22;9435;52.122;5.502;2023-04-29T10:20:40;14.90;99.90
18611;DHT22;9435;52.122;5.502;2023-04-29T10:23:13;15.30;99.90
18611;DHT22;9435;52.122;5.502;2023-04-29T10:25:41;15.30;99.90
18611;DHT22;9435;52.122;5.502;2023-04-29T10:28:12;15.40;99.90
18611;DHT22;9435;52.122;5.502;2023-04-29T10:30:43;15.30;99.90
18611;DHT22;9435;52.122;5.502;2023-04-29T10:33:11;15.60;99.90
18611;DHT22;9435;52.122;5.502;2023-04-29T10:35:39;15.80;99.90
18611;DHT22;9435;52.122;5.502;2023-04-29T10:38:27;15.20;99.90
18611;DHT22;9435;52.122;5.502;2023-04-29T10:40:56;14.90;99.90
18611;DHT22;9435;52.122;5.502;2023-04-29T10:43:24;14.90;99.90
18611;DHT22;9435;52.122;5.502;2023-04-29T10:46:16;15.40;99.90
18611;DHT22;9435;52.122;5.502;2023-04-29T10:48:43;15.70;99.90
18611;DHT22;9435;52.122;5.502;2023-04-29T10:51:11;15.50;99.90
18611;DHT22;9435;52.122;5.502;2023-04-29T10:54:05;15.20;99.90
18611;DHT22;9435;52.122;5.502;2023-04-29T10:56:41;15.30;99.90
18611;DHT22;9435;52.122;5.502;2023-04-29T10:59:12;15.40;99.90
18611;DHT22;9435;52.122;5.502;2023-04-29T11:01:48;15.80;99.90
18611;DHT22;9435;52.122;5.502;2023-04-29T11:04:16;15.60;99.90
18611;DHT22;9435;52.122;5.502;2023-04-29T11:06:50;15.40;99.90
18611;DHT22;9435;52.122;5.502;2023-04-29T11:09:26;15.70;99.90
18611;DHT22;9435;52.122;5.502;2023-04-29T11:12:00;15.70;99.90
18611;DHT22;9435;52.122;5.502;2023-04-29T11:14:31;15.30;99.90
18611;DHT22;9435;52.122;5.502;2023-04-29T11:17:02;15.40;99.90
18611;DHT22;9435;52.122;5.502;2023-04-29T11:19:31;15.60;99.90
18611;DHT22;9435;52.122;5.502;2023-04-29T11:22:24;16.10;99.90
18611;DHT22;9435;52.122;5.502;2023-04-29T11:24:54;16.60;99.90
18611;DHT22;9435;52.122;5.502;2023-04-29T11:27:23;16.30;99.90
18611;DHT22;9435;52.122;5.502;2023-04-29T11:29:52;16.10;99.90
18611;DHT22;9435;52.122;5.502;2023-04-29T11:32:23;16.40;99.90
18611;DHT22;9435;52.122;5.502;2023-04-29T11:34:50;16.40;99.90
18611;DHT22;9435;52.122;5.502;2023-04-29T11:37:21;16.20;99.90
18611;DHT22;9435;52.122;5.502;2023-04-29T11:39:48;16.50;99.90
18611;DHT22;9435;52.122;5.502;2023-04-29T11:42:20;17.10;99.90
18611;DHT22;9435;52.122;5.502;2023-04-29T11:44:50;17.10;99.90
18611;DHT22;9435;52.122;5.502;2023-04-29T11:47:18;17.40;99.90
18611;DHT22;9435;52.122;5.502;2023-04-29T11:49:46;17.10;99.90
18611;DHT22;9435;52.122;5.502;2023-04-29T11:52:13;16.80;99.90
18611;DHT22;9435;52.122;5.502;2023-04-29T11:54:41;16.80;99.90
18611;DHT22;9435;52.122;5.502;2023-04-29T11:57:09;16.60;99.90
18611;DHT22;9435;52.122;5.502;2023-04-29T11:59:39;15.80;99.90
18611;DHT22;9435;52.122;5.502;2023-04-29T12:02:10;15.50;99.90
18611;DHT22;9435;52.122;5.502;2023-04-29T12:04:44;16.30;99.90
18611;DHT22;9435;52.122;5.502;2023-04-29T12:07:13;16.60;99.90
18611;DHT22;9435;52.122;5.502;2023-04-29T12:09:41;16.40;99.90
18611;DHT22;9435;52.122;5.502;2023-04-29T12:12:09;16.40;99.90
18611;DHT22;9435;52.122;5.502;2023-04-29T12:14:38;16.60;99.90
18611;DHT22;9435;52.122;5.502;2023-04-29T12:17:06;17.10;99.90
18611;DHT22;9435;52.122;5.502;2023-04-29T12:19:33;17.70;99.90
18611;DHT22;9435;52.122;5.502;2023-04-29T12:22:03;17.90;99.90
18611;DHT22;9435;52.122;5.502;2023-04-29T12:24:33;17.50;99.90
18611;DHT22;9435;52.122;5.502;2023-04-29T12:27:01;17.00;99.90
18611;DHT22;9435;52.122;5.502;2023-04-29T12:29:28;17.00;99.90
18611;DHT22;9435;52.122;5.502;2023-04-29T12:31:56;17.20;99.90
18611;DHT22;9435;52.122;5.502;2023-04-29T12:34:27;16.70;99.90
18611;DHT22;9435;52.122;5.502;2023-04-29T12:36:55;17.40;99.90
18611;DHT22;9435;52.122;5.502;2023-04-29T12:39:23;17.50;99.90
18611;DHT22;9435;52.122;5.502;2023-04-29T12:41:54;17.50;99.90
18611;DHT22;9435;52.122;5.502;2023-04-29T12:44:23;17.70;99.90
18611;DHT22;9435;52.122;5.502;2023-04-29T12:46:50;16.60;99.90
18611;DHT22;9435;52.122;5.502;2023-04-29T12:49:19;16.20;99.90
18611;DHT22;9435;52.122;5.502;2023-04-29T12:51:46;16.60;99.90
18611;DHT22;9435;52.122;5.502;2023-04-29T12:54:14;16.60;99.90
18611;DHT22;9435;52.122;5.502;2023-04-29T12:56:41;17.20;99.90
18611;DHT22;9435;52.122;5.502;2023-04-29T12:59:09;17.60;99.90
18611;DHT22;9435;52.122;5.502;2023-04-29T13:01:36;17.90;99.90
18611;DHT22;9435;52.122;5.502;2023-04-29T13:04:04;18.00;99.90
18611;DHT22;9435;52.122;5.502;2023-04-29T13:06:34;17.90;99.90
18611;DHT22;9435;52.122;5.502;2023-04-29T13:09:06;17.70;99.90
18611;DHT22;9435;52.122;5.502;2023-04-29T13:11:36;17.80;99.90
18611;DHT22;9435;52.122;5.502;2023-04-29T13:14:03;17.60;99.90
18611;DHT22;9435;52.122;5.502;2023-04-29T13:16:31;17.60;99.90
18611;DHT22;9435;52.122;5.502;2023-04-29T13:18:58;17.70;99.90
18611;DHT22;9435;52.122;5.502;2023-04-29T13:21:26;17.90;99.90
18611;DHT22;9435;52.122;5.502;2023-04-29T13:23:54;18.40;99.90
18611;DHT22;9435;52.122;5.502;2023-04-29T13:26:21;18.60;99.90
18611;DHT22;9435;52.122;5.502;2023-04-29T13:28:49;17.50;99.90
18611;DHT22;9435;52.122;5.502;2023-04-29T13:31:16;17.50;99.90
18611;DHT22;9435;52.122;5.502;2023-04-29T13:33:43;17.70;99.90
18611;DHT22;9435;52.122;5.502;2023-04-29T13:36:12;17.50;99.90
18611;DHT22;9435;52.122;5.502;2023-04-29T13:38:39;17.70;99.90
18611;DHT22;9435;52.122;5.502;2023-04-29T13:41:07;17.80;99.90
18611;DHT22;9435;52.122;5.502;2023-04-29T13:43:34;18.00;99.90
18611;DHT22;9435;52.122;5.502;2023-04-29T13:46:01;18.10;99.90
18611;DHT22;9435;52.122;5.502;2023-04-29T13:48:28;17.80;99.90
18611;DHT22;9435;52.122;5.502;2023-04-29T13:50:55;17.30;99.90
18611;DHT22;9435;52.122;5.502;2023-04-29T13:53:22;16.60;99.90
18611;DHT22;9435;52.122;5.502;2023-04-29T13:55:50;16.60;99.90
18611;DHT22;9435;52.122;5.502;2023-04-29T13:58:19;17.00;99.90
18611;DHT22;9435;52.122;5.502;2023-04-29T14:00:46;17.50;99.90
18611;DHT22;9435;52.122;5.502;2023-04-29T14:03:13;17.20;99.90
18611;DHT22;9435;52.122;5.502;2023-04-29T14:05:40;17.30;99.90
18611;DHT22;9435;52.122;5.502;2023-04-29T14:08:07;17.50;99.90
18611;DHT22;9435;52.122;5.502;2023-04-29T14:10:34;17.80;99.90
18611;DHT22;9435;52.122;5.502;2023-04-29T14:13:02;17.20;99.90
18611;DHT22;9435;52.122;5.502;2023-04-29T14:15:31;17.20;99.90
18611;DHT22;9435;52.122;5.502;2023-04-29T14:17:58;17.20;99.90
18611;DHT22;9435;52.122;5.502;2023-04-29T14:20:25;17.00;99.90
18611;DHT22;9435;52.122;5.502;2023-04-29T14:22:52;16.90;99.90
18611;DHT22;9435;52.122;5.502;2023-04-29T14:25:19;17.00;99.90
18611;DHT22;9435;52.122;5.502;2023-04-29T14:27:46;17.00;99.90
18611;DHT22;9435;52.122;5.502;2023-04-29T14:30:13;17.30;99.90
18611;DHT22;9435;52.122;5.502;2023-04-29T14:32:42;17.20;99.90
18611;DHT22;9435;52.122;5.502;2023-04-29T14:35:09;17.10;99.90
18611;DHT22;9435;52.122;5.502;2023-04-29T14:37:36;17.20;99.90
18611;DHT22;9435;52.122;5.502;2023-04-29T14:40:05;17.20;99.90
18611;DHT22;9435;52.122;5.502;2023-04-29T14:42:33;17.00;99.90
18611;DHT22;9435;52.122;5.502;2023-04-29T14:45:00;16.80;99.90
18611;DHT22;9435;52.122;5.502;2023-04-29T14:47:27;16.70;99.90
18611;DHT22;9435;52.122;5.502;2023-04-29T14:49:56;16.60;99.90
18611;DHT22;9435;52.122;5.502;2023-04-29T14:52:23;16.40;99.90
18611;DHT22;9435;52.122;5.502;2023-04-29T14:54:50;16.50;99.90
18611;DHT22;9435;52.122;5.502;2023-04-29T14:57:17;16.50;99.90
18611;DHT22;9435;52.122;5.502;2023-04-29T14:59:45;16.50;99.90
18611;DHT22;9435;52.122;5.502;2023-04-29T15:02:14;16.50;99.90
18611;DHT22;9435;52.122;5.502;2023-04-29T15:04:41;16.40;99.90
18611;DHT22;9435;52.122;5.502;2023-04-29T15:07:12;16.50;99.90
18611;DHT22;9435;52.122;5.502;2023-04-29T15:09:39;16.40;99.90
18611;DHT22;9435;52.122;5.502;2023-04-29T15:12:06;16.00;99.90
18611;DHT22;9435;52.122;5.502;2023-04-29T15:14:34;16.10;99.90
18611;DHT22;9435;52.122;5.502;2023-04-29T15:17:01;16.30;99.90
18611;DHT22;9435;52.122;5.502;2023-04-29T15:19:29;16.40;99.90
18611;DHT22;9435;52.122;5.502;2023-04-29T15:21:56;16.50;99.90
18611;DHT22;9435;52.122;5.502;2023-04-29T15:24:24;16.00;99.90
18611;DHT22;9435;52.122;5.502;2023-04-29T15:26:51;16.10;99.90
18611;DHT22;9435;52.122;5.502;2023-04-29T15:29:19;16.10;99.90
18611;DHT22;9435;52.122;5.502;2023-04-29T15:31:46;15.90;99.90
18611;DHT22;9435;52.122;5.502;2023-04-29T15:34:13;16.00;99.90
18611;DHT22;9435;52.122;5.502;2023-04-29T15:36:41;16.10;99.90
18611;DHT22;9435;52.122;5.502;2023-04-29T15:39:08;16.10;99.90
18611;DHT22;9435;52.122;5.502;2023-04-29T15:41:37;16.00;99.90
18611;DHT22;9435;52.122;5.502;2023-04-29T15:44:05;16.10;99.90
18611;DHT22;9435;52.122;5.502;2023-04-29T15:46:32;16.10;99.90
18611;DHT22;9435;52.122;5.502;2023-04-29T15:48:59;15.80;99.90
18611;DHT22;9435;52.122;5.502;2023-04-29T15:51:27;15.70;99.90
18611;DHT22;9435;52.122;5.502;2023-04-29T15:53:54;15.40;99.90
18611;DHT22;9435;52.122;5.502;2023-04-29T15:56:21;15.60;99.90
18611;DHT22;9435;52.122;5.502;2023-04-29T15:58:49;15.70;99.90
18611;DHT22;9435;52.122;5.502;2023-04-29T16:01:17;15.70;99.90